Time;durP1;ratioP1;P1;durP2;ratioP2;P2;SDS_P1;SDS_P2;PMS_P1;PMS_P2;Temp;Humidity;BMP_temperature;BMP_pressure;BME280_temperature;BME280_humidity;BME280_pressure;Samples;Min_cycle;Max_cycle;Signal;HPM_P1;HPM_P2
2021/01/10 00:02:15;;;;;;;;;;;;;;;8.67;55.38;101982.66;6028101;23;99304;-79
2021/01/10 00:04:40;;;;;;;;;;;;;;;8.31;56.34;101980.31;6029387;23;96987;-79
2021/01/10 00:07:06;;;;;;;;;;;;;;;8.53;56.06;101971.38;6028029;23;96825;-78
2021/01/10 00:09:32;;;;;;;;;;;;;;;8.06;56.90;101974.28;6026362;23;98800;-78
2021/01/10 00:11:58;;;;;;;;;;;;;;;8.23;57.14;101980.31;6027450;23;98839;-78
2021/01/10 00:14:24;;;;;;;;;;;;;;;8.21;56.76;101979.44;6028760;23;96752;-78
2021/01/10 00:16:50;;;;;;;;;;;;;;;8.26;56.76;101977.69;6028374;23;96852;-78
2021/01/10 00:19:16;;;;;;;;;;;;;;;7.95;57.62;101983.97;6031375;23;98892;-77
2021/01/10 00:21:42;;;;;;;;;;;;;;;8.58;55.76;101981.88;6032988;23;99920;-77
2021/01/10 00:24:08;;;;;;;;;;;;;;;8.39;56.11;101983.75;6032741;23;96845;-75
2021/01/10 00:26:34;;;;;;;;;;;;;;;8.46;56.20;101985.47;6032887;23;96927;-74
2021/01/10 00:29:00;;;;;;;;;;;;;;;8.44;55.87;101983.72;6028732;23;99175;-75
2021/01/10 00:31:30;;;;;;;;;;;;;;;8.50;55.80;101991.56;6028305;23;99308;-75
2021/01/10 00:33:56;;;;;;;;;;;;;;;8.41;55.86;101992.50;6027523;23;96763;-75
2021/01/10 00:36:22;;;;;;;;;;;;;;;8.96;54.45;101985.03;6028403;23;97091;-76
2021/01/10 00:38:51;;;;;;;;;;;;;;;8.13;56.45;101991.81;6027651;23;97606;-76
2021/01/10 00:41:17;;;;;;;;;;;;;;;8.34;56.34;102002.22;6029878;23;96875;-76
2021/01/10 00:43:43;;;;;;;;;;;;;;;8.13;56.93;102002.34;6029448;23;97198;-77
2021/01/10 00:46:13;;;;;;;;;;;;;;;8.31;56.72;102002.25;6029324;23;96966;-76
2021/01/10 00:48:39;;;;;;;;;;;;;;;8.44;55.77;102003.03;6032827;23;99246;-77
2021/01/10 00:51:11;;;;;;;;;;;;;;;8.55;55.77;102002.94;6034960;23;99254;-77
2021/01/10 00:53:37;;;;;;;;;;;;;;;8.51;55.77;102001.25;6035650;23;97114;-77
2021/01/10 00:56:03;;;;;;;;;;;;;;;8.68;55.11;101997.59;6031287;23;96873;-76
2021/01/10 00:58:29;;;;;;;;;;;;;;;8.37;56.14;102003.97;6029903;23;99333;-77
2021/01/10 01:00:55;;;;;;;;;;;;;;;8.27;56.44;102002.25;6030151;23;97971;-76
2021/01/10 01:03:21;;;;;;;;;;;;;;;8.48;55.80;102009.16;6029717;23;96818;-76
2021/01/10 01:05:47;;;;;;;;;;;;;;;8.46;55.69;102010.94;6029225;23;96805;-77
2021/01/10 01:08:14;;;;;;;;;;;;;;;8.20;56.60;102013.69;6033032;23;97940;-77
2021/01/10 01:10:40;;;;;;;;;;;;;;;8.35;55.51;102014.50;6047298;23;97087;-76
2021/01/10 01:13:05;;;;;;;;;;;;;;;8.21;56.15;102016.31;6050995;23;96219;-77
2021/01/10 01:15:31;;;;;;;;;;;;;;;8.32;55.87;102018.94;6051986;23;96272;-76
2021/01/10 01:17:57;;;;;;;;;;;;;;;7.88;57.04;102021.72;6050152;23;98158;-77
2021/01/10 01:20:23;;;;;;;;;;;;;;;8.28;56.09;102028.56;6037259;23;98877;-77
2021/01/10 01:22:48;;;;;;;;;;;;;;;8.08;56.32;102027.78;6036589;23;96673;-77
2021/01/10 01:25:15;;;;;;;;;;;;;;;8.36;55.78;102025.91;6029095;23;96896;-76
2021/01/10 01:27:41;;;;;;;;;;;;;;;8.26;55.58;102027.72;6028030;23;99407;-77
2021/01/10 01:30:07;;;;;;;;;;;;;;;8.43;55.52;102032.00;6028294;23;97885;-77
2021/01/10 01:32:34;;;;;;;;;;;;;;;8.68;54.66;102023.06;6029101;23;96739;-76
2021/01/10 01:34:59;;;;;;;;;;;;;;;8.49;54.82;102030.22;6027828;23;96866;-77
2021/01/10 01:37:25;;;;;;;;;;;;;;;8.47;54.72;102033.78;6027571;23;98837;-76
2021/01/10 01:39:51;;;;;;;;;;;;;;;8.45;54.29;102038.16;6026981;23;98829;-76
2021/01/10 01:42:18;;;;;;;;;;;;;;;8.40;54.44;102036.41;6027793;23;96717;-76
2021/01/10 01:44:44;;;;;;;;;;;;;;;8.36;54.68;102032.06;6027377;23;96837;-76
2021/01/10 01:47:12;;;;;;;;;;;;;;;8.22;54.68;102028.59;6028284;23;98326;-76
2021/01/10 01:49:38;;;;;;;;;;;;;;;8.36;54.32;102032.06;6028312;23;98812;-76
2021/01/10 01:52:05;;;;;;;;;;;;;;;8.34;54.65;102039.09;6028203;23;97033;-76
2021/01/10 01:54:31;;;;;;;;;;;;;;;8.39;54.27;102039.97;6029563;23;96918;-76
2021/01/10 01:56:57;;;;;;;;;;;;;;;8.22;54.64;102039.13;6030058;23;98969;-76
2021/01/10 01:59:24;;;;;;;;;;;;;;;7.75;55.98;102034.06;6029539;23;99135;-76
2021/01/10 02:01:49;;;;;;;;;;;;;;;7.49;56.32;102031.50;6029469;23;96640;-76
2021/01/10 02:04:19;;;;;;;;;;;;;;;7.88;54.84;102030.50;6028830;23;96856;-76
2021/01/10 02:06:48;;;;;;;;;;;;;;;8.28;53.72;102035.56;6030595;23;99367;-77
2021/01/10 02:09:16;;;;;;;;;;;;;;;8.45;53.30;102036.41;6032317;23;99394;-76
2021/01/10 02:11:42;;;;;;;;;;;;;;;8.39;53.03;102037.31;6030304;23;96783;-77
2021/01/10 02:14:10;;;;;;;;;;;;;;;8.23;53.30;102040.88;6033324;23;97257;-76
2021/01/10 02:16:37;;;;;;;;;;;;;;;8.27;53.30;102042.59;6029853;23;96846;-76
2021/01/10 02:19:05;;;;;;;;;;;;;;;8.32;53.21;102040.88;6028296;23;98931;-76
2021/01/10 02:21:32;;;;;;;;;;;;;;;8.47;52.75;102039.03;6029327;23;96688;-76
2021/01/10 02:24:04;;;;;;;;;;;;;;;8.47;53.03;102039.88;6028405;23;97085;-76
2021/01/10 02:26:30;;;;;;;;;;;;;;;8.42;53.10;102040.81;6028974;23;99733;-76
2021/01/10 02:28:57;;;;;;;;;;;;;;;8.45;53.25;102040.78;6028312;23;99268;-76
2021/01/10 02:31:24;;;;;;;;;;;;;;;8.40;53.28;102043.47;6028581;23;96658;-76
2021/01/10 02:33:52;;;;;;;;;;;;;;;8.26;53.39;102040.88;6033620;23;97196;-76
2021/01/10 02:36:19;;;;;;;;;;;;;;;8.17;53.61;102045.28;6028968;23;99200;-76
2021/01/10 02:38:48;;;;;;;;;;;;;;;8.32;53.46;102037.34;6027662;23;99279;-76
2021/01/10 02:41:26;;;;;;;;;;;;;;;8.31;53.32;102039.13;6027729;23;96853;-76
2021/01/10 02:43:55;;;;;;;;;;;;;;;7.99;54.35;102033.09;6028293;23;96673;-75
2021/01/10 02:46:21;;;;;;;;;;;;;;;8.12;53.98;102041.81;6027991;23;99176;-75
2021/01/10 02:48:47;;;;;;;;;;;;;;;8.18;53.67;102047.94;6028191;23;99025;-77
2021/01/10 02:51:13;;;;;;;;;;;;;;;8.07;54.06;102044.50;6028699;23;96801;-77
2021/01/10 02:53:39;;;;;;;;;;;;;;;7.93;54.80;102044.53;6028014;23;96780;-77
2021/01/10 02:56:05;;;;;;;;;;;;;;;8.06;54.29;102041.84;6028942;23;98878;-77
2021/01/10 02:58:35;;;;;;;;;;;;;;;8.14;54.10;102045.34;6029030;23;99667;-76
2021/01/10 03:01:02;;;;;;;;;;;;;;;8.06;54.30;102039.22;6029294;23;97133;-77
2021/01/10 03:03:28;;;;;;;;;;;;;;;8.31;53.73;102043.50;6028358;23;97021;-76
2021/01/10 03:05:55;;;;;;;;;;;;;;;8.20;53.53;102046.19;6028225;23;98881;-77
2021/01/10 03:08:20;;;;;;;;;;;;;;;8.48;52.52;102046.03;6027768;23;99491;-77
2021/01/10 03:10:47;;;;;;;;;;;;;;;8.31;53.13;102044.38;6029077;23;96709;-76
2021/01/10 03:13:13;;;;;;;;;;;;;;;8.20;53.44;102051.44;6029947;23;96941;-77
2021/01/10 03:15:40;;;;;;;;;;;;;;;8.20;52.98;102048.81;6028268;23;99088;-77
2021/01/10 03:18:15;;;;;;;;;;;;;;;8.06;53.31;102044.50;6028870;23;98834;-77
2021/01/10 03:20:41;;;;;;;;;;;;;;;8.01;53.65;102048.00;6036481;23;96680;-78
2021/01/10 03:23:07;;;;;;;;;;;;;;;7.82;53.69;102048.06;6038944;23;96690;-76
2021/01/10 03:25:33;;;;;;;;;;;;;;;8.17;52.96;102056.72;6039467;23;99014;-76
2021/01/10 03:27:58;;;;;;;;;;;;;;;7.97;53.07;102048.91;6035716;23;99365;-77
2021/01/10 03:30:24;;;;;;;;;;;;;;;7.63;53.96;102051.66;6029812;23;96682;-78
2021/01/10 03:32:51;;;;;;;;;;;;;;;7.49;54.27;102054.31;6029581;23;96822;-76
2021/01/10 03:35:17;;;;;;;;;;;;;;;6.87;56.40;102054.38;6029690;23;99398;-76
2021/01/10 03:37:43;;;;;;;;;;;;;;;7.14;55.59;102049.13;6028989;23;98913;-76
2021/01/10 03:40:09;;;;;;;;;;;;;;;7.64;54.11;102053.41;6028462;23;96795;-76
2021/01/10 03:42:35;;;;;;;;;;;;;;;6.94;55.25;102057.00;6028184;23;96666;-77
2021/01/10 03:45:01;;;;;;;;;;;;;;;7.09;55.30;102056.97;6028311;23;98969;-75
2021/01/10 03:47:27;;;;;;;;;;;;;;;7.76;53.73;102050.72;6029653;23;99570;-77
2021/01/10 03:49:53;;;;;;;;;;;;;;;7.87;52.96;102059.47;6028767;23;97129;-77
2021/01/10 03:52:19;;;;;;;;;;;;;;;8.16;51.91;102070.75;6027288;23;96868;-75
2021/01/10 03:54:45;;;;;;;;;;;;;;;7.98;52.75;102065.56;6028548;23;99014;-77
2021/01/10 03:57:11;;;;;;;;;;;;;;;7.51;52.90;102063.97;6028835;23;98904;-76
2021/01/10 03:59:36;;;;;;;;;;;;;;;7.89;52.01;102060.31;6029033;23;96760;-76
2021/01/10 04:02:02;;;;;;;;;;;;;;;7.43;53.58;102068.34;6028554;23;96821;-76
2021/01/10 04:04:28;;;;;;;;;;;;;;;7.67;52.76;102064.81;6027965;23;98937;-77
2021/01/10 04:06:55;;;;;;;;;;;;;;;8.14;51.29;102067.25;6027126;23;99209;-78
2021/01/10 04:09:20;;;;;;;;;;;;;;;7.87;51.39;102063.00;6027577;23;96991;-76
2021/01/10 04:11:46;;;;;;;;;;;;;;;8.27;50.41;102066.28;6028304;23;96803;-76
2021/01/10 04:14:12;;;;;;;;;;;;;;;8.04;50.37;102056.78;6027751;23;98957;-75
2021/01/10 04:16:38;;;;;;;;;;;;;;;7.91;50.29;102058.56;6028193;23;97921;-77
2021/01/10 04:19:03;;;;;;;;;;;;;;;7.77;51.32;102052.47;6028286;23;97021;-80
2021/01/10 04:21:32;;;;;;;;;;;;;;;7.70;51.51;102046.38;6026774;23;96814;-77
2021/01/10 04:23:59;;;;;;;;;;;;;;;7.78;51.23;102036.69;6028145;23;98983;-77
2021/01/10 04:26:25;;;;;;;;;;;;;;;8.16;50.68;102041.78;6027915;23;99340;-77
2021/01/10 04:28:51;;;;;;;;;;;;;;;7.78;50.95;102035.81;6029461;23;96819;-77
2021/01/10 04:31:16;;;;;;;;;;;;;;;7.57;51.68;102035.00;6028226;23;96937;-77
2021/01/10 04:33:42;;;;;;;;;;;;;;;7.86;51.32;102031.41;6028745;23;98885;-77
2021/01/10 04:36:08;;;;;;;;;;;;;;;7.96;50.87;102030.47;6028244;23;99316;-77
2021/01/10 04:38:34;;;;;;;;;;;;;;;7.97;50.67;102037.50;6028854;23;96891;-76
2021/01/10 04:41:00;;;;;;;;;;;;;;;7.75;50.81;102035.81;6029412;23;96842;-77
2021/01/10 04:43:26;;;;;;;;;;;;;;;7.95;50.74;102033.97;6032658;23;98956;-77
2021/01/10 04:45:52;;;;;;;;;;;;;;;7.80;51.32;102034.06;6033910;23;101645;-77
2021/01/10 04:48:18;;;;;;;;;;;;;;;8.11;50.57;102034.81;6035170;23;96591;-76
2021/01/10 04:50:44;;;;;;;;;;;;;;;7.78;50.89;102028.81;6035813;23;97120;-77
2021/01/10 04:53:11;;;;;;;;;;;;;;;7.81;51.39;102035.81;6032280;23;98195;-77
2021/01/10 04:55:37;;;;;;;;;;;;;;;7.83;51.15;102037.53;6028073;23;97800;-76
2021/01/10 04:58:05;;;;;;;;;;;;;;;7.74;51.42;102031.47;6027934;23;96716;-76
2021/01/10 05:00:32;;;;;;;;;;;;;;;7.56;51.45;102035.88;6028335;23;96822;-76
2021/01/10 05:03:04;;;;;;;;;;;;;;;7.50;51.65;102029.75;6027814;23;98993;-76
2021/01/10 05:05:30;;;;;;;;;;;;;;;7.71;51.10;102028.81;6027428;23;98941;-76
2021/01/10 05:07:56;;;;;;;;;;;;;;;7.81;50.54;102028.78;6028224;23;96753;-76
2021/01/10 05:10:22;;;;;;;;;;;;;;;7.55;51.23;102033.25;6026720;23;97372;-76
2021/01/10 05:12:48;;;;;;;;;;;;;;;7.41;51.25;102035.06;6028143;23;98866;-77
2021/01/10 05:15:15;;;;;;;;;;;;;;;7.46;51.08;102034.16;6027159;23;99198;-75
2021/01/10 05:17:40;;;;;;;;;;;;;;;7.49;50.93;102034.13;6027269;23;97340;-76
2021/01/10 05:20:07;;;;;;;;;;;;;;;7.62;50.32;102032.34;6026887;23;97028;-77
2021/01/10 05:22:33;;;;;;;;;;;;;;;7.67;50.24;102035.00;6026350;23;98895;-77
2021/01/10 05:25:10;;;;;;;;;;;;;;;7.77;49.72;102036.69;6027440;23;98874;-76
2021/01/10 05:27:36;;;;;;;;;;;;;;;7.58;50.13;102035.88;6027930;23;96778;-76
2021/01/10 05:30:02;;;;;;;;;;;;;;;7.40;50.28;102033.31;6027170;23;96940;-77
2021/01/10 05:32:30;;;;;;;;;;;;;;;7.32;50.25;102032.44;6027310;23;98868;-76
2021/01/10 05:34:59;;;;;;;;;;;;;;;7.69;49.80;102033.22;6027621;23;99305;-76
2021/01/10 05:37:25;;;;;;;;;;;;;;;7.46;50.03;102031.53;6028067;23;96738;-76
2021/01/10 05:39:51;;;;;;;;;;;;;;;7.69;49.95;102030.56;6027492;23;96947;-77
2021/01/10 05:42:17;;;;;;;;;;;;;;;7.50;50.14;102035.03;6028164;23;98997;-77
2021/01/10 05:44:52;;;;;;;;;;;;;;;7.57;50.17;102032.38;6030027;23;98740;-77
2021/01/10 05:47:19;;;;;;;;;;;;;;;7.67;50.07;102032.34;6028976;23;97016;-77
2021/01/10 05:49:46;;;;;;;;;;;;;;;7.61;50.03;102034.09;6028595;23;96835;-78
2021/01/10 05:52:13;;;;;;;;;;;;;;;7.18;50.49;102032.44;6027882;23;98854;-76
2021/01/10 05:54:39;;;;;;;;;;;;;;;7.18;51.14;102029.81;6027083;23;98927;-76
2021/01/10 05:57:06;;;;;;;;;;;;;;;7.42;50.42;102027.13;6027776;23;96728;-76
2021/01/10 05:59:32;;;;;;;;;;;;;;;7.38;49.75;102035.94;6027614;23;96724;-77
2021/01/10 06:01:58;;;;;;;;;;;;;;;7.53;49.63;102035.03;6027230;23;99205;-77
2021/01/10 06:04:24;;;;;;;;;;;;;;;7.69;48.90;102035.84;6027116;23;101399;-77
2021/01/10 06:06:51;;;;;;;;;;;;;;;7.78;48.76;102035.81;6027962;23;96710;-77
2021/01/10 06:09:17;;;;;;;;;;;;;;;7.80;48.96;102036.69;6026476;23;96935;-77
2021/01/10 06:11:42;;;;;;;;;;;;;;;7.58;49.01;102038.50;6026907;23;98908;-77
2021/01/10 06:14:09;;;;;;;;;;;;;;;7.71;48.92;102039.34;6027027;23;98812;-77
2021/01/10 06:16:36;;;;;;;;;;;;;;;7.44;49.50;102043.81;6027234;23;97076;-78
2021/01/10 06:19:03;;;;;;;;;;;;;;;7.42;49.50;102039.41;6028370;23;96789;-76
2021/01/10 06:21:30;;;;;;;;;;;;;;;7.33;49.61;102042.09;6030069;23;99159;-76
2021/01/10 06:23:57;;;;;;;;;;;;;;;7.47;49.01;102045.56;6027160;23;98867;-76
2021/01/10 06:26:24;;;;;;;;;;;;;;;7.34;48.99;102047.34;6028461;23;96964;-77
2021/01/10 06:28:52;;;;;;;;;;;;;;;7.44;48.12;102056.94;6027467;23;96879;-76
2021/01/10 06:31:22;;;;;;;;;;;;;;;7.57;48.06;102048.16;6027050;23;98987;-76
2021/01/10 06:33:50;;;;;;;;;;;;;;;7.58;48.72;102049.91;6028625;23;98799;-76
2021/01/10 06:36:19;;;;;;;;;;;;;;;7.39;49.10;102053.47;6028641;23;96759;-77
2021/01/10 06:38:50;;;;;;;;;;;;;;;7.53;48.83;102054.31;6028660;23;96821;-76
2021/01/10 06:41:28;;;;;;;;;;;;;;;7.46;48.77;102060.47;6028642;23;98220;-75
2021/01/10 06:43:55;;;;;;;;;;;;;;;7.40;49.39;102059.59;6029102;23;98932;-76
2021/01/10 06:46:21;;;;;;;;;;;;;;;7.68;48.60;102058.63;6029206;23;97005;-77
2021/01/10 06:48:48;;;;;;;;;;;;;;;7.41;49.20;102056.97;6028933;23;96941;-77
2021/01/10 06:51:14;;;;;;;;;;;;;;;7.57;49.26;102063.06;6029407;23;97854;-77
2021/01/10 06:53:41;;;;;;;;;;;;;;;7.38;49.31;102056.97;6029011;23;99186;-77
2021/01/10 06:56:07;;;;;;;;;;;;;;;7.54;48.70;102063.09;6029605;23;96901;-77
2021/01/10 06:58:33;;;;;;;;;;;;;;;7.51;49.05;102063.06;6029307;23;96869;-76
2021/01/10 07:00:59;;;;;;;;;;;;;;;7.15;50.10;102067.50;6028476;23;98895;-76
2021/01/10 07:03:26;;;;;;;;;;;;;;;7.38;49.54;102074.50;6028619;23;98828;-78
2021/01/10 07:06:08;;;;;;;;;;;;;;;7.52;49.10;102076.22;6029136;23;96763;-77
2021/01/10 07:08:38;;;;;;;;;;;;;;;7.51;49.13;102074.47;6028335;23;97148;-77
2021/01/10 07:11:19;;;;;;;;;;;;;;;7.57;48.86;102074.47;6028542;23;99123;-77
2021/01/10 07:13:45;;;;;;;;;;;;;;;7.40;49.35;102073.63;6027713;23;98975;-77
2021/01/10 07:16:17;;;;;;;;;;;;;;;7.07;50.15;102076.28;6029167;23;96912;-77
2021/01/10 07:18:49;;;;;;;;;;;;;;;6.64;50.82;102078.84;6029258;23;97206;-76
2021/01/10 07:21:30;;;;;;;;;;;;;;;6.98;50.52;102082.41;6029183;23;99303;-76
2021/01/10 07:24:11;;;;;;;;;;;;;;;7.21;49.78;102079.78;6026067;23;98999;-77
2021/01/10 07:26:40;;;;;;;;;;;;;;;7.14;49.44;102091.19;6028923;23;96783;-77
2021/01/10 07:29:21;;;;;;;;;;;;;;;7.22;49.26;102085.00;6028598;23;96946;-78
2021/01/10 07:31:54;;;;;;;;;;;;;;;7.43;48.65;102085.88;6027799;23;98961;-78
2021/01/10 07:34:20;;;;;;;;;;;;;;;6.79;49.55;102091.16;6030418;23;98868;-78
2021/01/10 07:36:46;;;;;;;;;;;;;;;7.00;49.31;102095.53;6036716;23;96633;-78
2021/01/10 07:39:12;;;;;;;;;;;;;;;7.01;49.61;102095.56;6029470;23;96827;-79
2021/01/10 07:41:38;;;;;;;;;;;;;;;7.10;49.09;102102.53;6031806;23;99216;-78
2021/01/10 07:44:04;;;;;;;;;;;;;;;7.14;49.46;102102.56;6041843;23;98854;-80
2021/01/10 07:47:00;;;;;;;;;;;;;;;7.23;49.16;102109.56;6048245;23;96986;-78
2021/01/10 07:49:31;;;;;;;;;;;;;;;7.44;48.62;102101.66;6042959;23;97347;-76
2021/01/10 07:51:57;;;;;;;;;;;;;;;7.32;48.63;102103.44;6030643;23;99097;-77
2021/01/10 07:54:41;;;;;;;;;;;;;;;7.02;49.24;102114.84;6030442;23;99097;-77
2021/01/10 07:57:37;;;;;;;;;;;;;;;7.29;49.01;102108.66;6029465;23;96885;-78
2021/01/10 08:00:14;;;;;;;;;;;;;;;7.05;49.72;102114.81;5913199;23;96814;-79
2021/01/10 08:02:44;;;;;;;;;;;;;;;7.27;49.26;102121.84;6009063;23;99225;-79
2021/01/10 08:05:13;;;;;;;;;;;;;;;7.27;49.46;102127.09;6028734;23;98950;-77
2021/01/10 08:07:45;;;;;;;;;;;;;;;7.58;48.31;102122.69;6029267;23;97001;-77
2021/01/10 08:10:12;;;;;;;;;;;;;;;7.39;48.75;102119.22;6030103;23;96695;-77
2021/01/10 08:12:39;;;;;;;;;;;;;;;7.02;49.50;102128.81;6031939;23;98871;-77
2021/01/10 08:15:06;;;;;;;;;;;;;;;7.17;49.28;102126.22;6029875;23;97802;-77
2021/01/10 08:17:32;;;;;;;;;;;;;;;7.06;49.71;102130.59;6029701;23;96700;-77
2021/01/10 08:19:59;;;;;;;;;;;;;;;7.16;49.54;102128.84;6030505;23;96838;-77
2021/01/10 08:22:26;;;;;;;;;;;;;;;6.70;50.73;102138.41;6029127;23;99277;-77
2021/01/10 08:24:53;;;;;;;;;;;;;;;7.00;50.21;102137.59;6029205;23;98908;-77
2021/01/10 08:27:19;;;;;;;;;;;;;;;7.01;49.80;102139.34;6029215;23;96665;-78
2021/01/10 08:29:45;;;;;;;;;;;;;;;7.15;49.47;102135.84;6029767;23;96887;-79
2021/01/10 08:32:11;;;;;;;;;;;;;;;7.11;49.59;102141.97;6031823;23;98915;-77
2021/01/10 08:34:45;;;;;;;;;;;;;;;7.16;49.65;102147.22;6029151;23;97756;-78
2021/01/10 08:37:11;;;;;;;;;;;;;;;7.32;49.24;102141.13;6029169;23;96673;-78
2021/01/10 08:39:38;;;;;;;;;;;;;;;7.14;49.63;102146.38;6031250;23;96824;-77
2021/01/10 08:42:04;;;;;;;;;;;;;;;7.14;49.57;102141.13;6028766;23;98848;-77
2021/01/10 08:44:30;;;;;;;;;;;;;;;6.89;50.05;102149.84;6029139;23;99155;-78
2021/01/10 08:46:56;;;;;;;;;;;;;;;6.98;49.97;102144.59;6029794;23;96679;-78
2021/01/10 08:49:23;;;;;;;;;;;;;;;6.89;49.86;102145.47;6031130;23;96807;-77
2021/01/10 08:51:49;;;;;;;;;;;;;;;7.15;49.23;102142.88;6030684;23;99162;-78
2021/01/10 08:54:15;;;;;;;;;;;;;;;6.91;49.85;102145.47;6029113;23;99029;-78
2021/01/10 08:56:43;;;;;;;;;;;;;;;6.93;49.96;102147.22;6029452;23;96737;-78
2021/01/10 08:59:10;;;;;;;;;;;;;;;6.93;49.26;102148.97;6030112;23;96924;-78
2021/01/10 09:01:36;;;;;;;;;;;;;;;7.10;49.27;102149.84;6028678;23;98994;-78
2021/01/10 09:04:03;;;;;;;;;;;;;;;6.63;51.02;102155.91;6028547;23;98857;-78
2021/01/10 09:06:35;;;;;;;;;;;;;;;6.61;50.80;102156.78;6029161;23;96712;-77
2021/01/10 09:09:02;;;;;;;;;;;;;;;6.69;50.53;102157.69;6028609;23;96948;-79
2021/01/10 09:11:30;;;;;;;;;;;;;;;6.62;50.38;102161.16;6028489;23;98942;-78
2021/01/10 09:13:58;;;;;;;;;;;;;;;6.72;49.89;102158.56;6029587;23;99226;-77
2021/01/10 09:16:25;;;;;;;;;;;;;;;7.10;49.00;102158.63;6030333;23;96786;-78
2021/01/10 09:18:52;;;;;;;;;;;;;;;7.10;49.23;102155.13;6031623;23;96974;-78
2021/01/10 09:21:25;;;;;;;;;;;;;;;7.04;49.16;102153.38;6040704;23;98148;-77
2021/01/10 09:23:53;;;;;;;;;;;;;;;6.91;49.21;102153.34;6033732;23;98867;-78
2021/01/10 09:26:29;;;;;;;;;;;;;;;7.25;48.32;102154.25;6036075;23;96804;-78
2021/01/10 09:28:59;;;;;;;;;;;;;;;7.22;48.05;102155.13;6036781;23;96731;-78
2021/01/10 09:31:39;;;;;;;;;;;;;;;7.07;48.36;102155.13;6039759;23;96965;-77
2021/01/10 09:34:05;;;;;;;;;;;;;;;7.14;47.20;102152.50;6029913;23;96768;-77
2021/01/10 09:36:31;;;;;;;;;;;;;;;7.25;46.85;102154.25;6030615;23;96778;-77
2021/01/10 09:38:57;;;;;;;;;;;;;;;7.16;47.18;102147.22;6030201;23;96867;-77
2021/01/10 09:41:23;;;;;;;;;;;;;;;7.33;46.55;102153.41;6029608;23;98922;-78
2021/01/10 09:43:50;;;;;;;;;;;;;;;7.08;47.02;102152.50;6031906;23;99273;-78
2021/01/10 09:46:30;;;;;;;;;;;;;;;7.20;47.10;102143.75;6029187;23;97585;-77
2021/01/10 09:48:58;;;;;;;;;;;;;;;6.48;48.18;102149.72;6033287;23;96751;-77
2021/01/10 09:51:25;;;;;;;;;;;;;;;6.92;48.05;102150.72;6032747;23;99363;-78
2021/01/10 09:53:51;;;;;;;;;;;;;;;7.26;47.30;102141.13;6034402;23;97419;-77
2021/01/10 09:56:35;;;;;;;;;;;;;;;7.22;47.51;102138.50;6036471;23;96873;-78
2021/01/10 09:59:02;;;;;;;;;;;;;;;7.13;47.37;102134.09;6038863;23;96746;-77
2021/01/10 10:01:35;;;;;;;;;;;;;;;7.22;47.38;102141.97;6037460;23;98930;-77
2021/01/10 10:04:05;;;;;;;;;;;;;;;7.26;47.12;102145.50;6034412;23;99182;-79
2021/01/10 10:06:46;;;;;;;;;;;;;;;7.50;46.92;102141.09;6039446;23;96860;-78
2021/01/10 10:09:11;;;;;;;;;;;;;;;7.20;46.78;102146.38;6034355;23;96694;-77
2021/01/10 10:11:37;;;;;;;;;;;;;;;7.31;46.86;102149.88;6029698;23;98958;-78
2021/01/10 10:14:07;;;;;;;;;;;;;;;7.33;46.58;102142.00;6030490;23;99331;-78
2021/01/10 10:16:36;;;;;;;;;;;;;;;7.72;45.75;102135.81;6032957;23;96767;-77
2021/01/10 10:19:05;;;;;;;;;;;;;;;7.72;46.01;102135.81;6032062;23;96702;-79
2021/01/10 10:21:31;;;;;;;;;;;;;;;7.55;46.17;102138.47;6032436;23;99510;-77
2021/01/10 10:23:57;;;;;;;;;;;;;;;7.70;46.84;102140.19;6032520;23;99199;-78
2021/01/10 10:26:22;;;;;;;;;;;;;;;7.96;45.78;102147.16;6030298;23;96583;-77
2021/01/10 10:28:48;;;;;;;;;;;;;;;7.82;45.86;102134.91;6031895;23;96828;-77
2021/01/10 10:31:14;;;;;;;;;;;;;;;7.64;45.99;102140.22;6032054;23;99042;-76
2021/01/10 10:33:40;;;;;;;;;;;;;;;7.90;45.43;102146.31;6030742;23;100702;-77
2021/01/10 10:36:07;;;;;;;;;;;;;;;7.89;45.37;102141.91;6034084;23;96737;-77
2021/01/10 10:38:34;;;;;;;;;;;;;;;8.28;44.75;102139.16;6031298;23;96857;-78
2021/01/10 10:41:00;;;;;;;;;;;;;;;7.81;44.79;102130.56;6031273;23;98926;-77
2021/01/10 10:43:25;;;;;;;;;;;;;;;8.39;43.91;102137.41;6030462;23;99018;-78
2021/01/10 10:45:52;;;;;;;;;;;;;;;8.70;43.13;102127.59;6031406;23;96751;-77
2021/01/10 10:48:18;;;;;;;;;;;;;;;8.89;42.58;102120.44;6029683;23;96870;-78
2021/01/10 10:50:44;;;;;;;;;;;;;;;8.87;42.35;102119.56;6030551;23;99531;-78
2021/01/10 10:53:11;;;;;;;;;;;;;;;8.68;42.30;102124.06;6029990;23;98342;-78
2021/01/10 10:56:05;;;;;;;;;;;;;;;8.58;41.85;102118.88;6032632;23;96972;-77
2021/01/10 10:58:30;;;;;;;;;;;;;;;8.63;41.94;102117.97;5999357;23;96876;-75
2021/01/10 11:00:57;;;;;;;;;;;;;;;8.15;43.50;102115.50;6030642;23;101486;-78
2021/01/10 11:03:23;;;;;;;;;;;;;;;8.40;43.11;102112.78;6032101;23;101550;-77
2021/01/10 11:06:01;;;;;;;;;;;;;;;8.26;43.57;102108.47;6033868;23;96999;-78
2021/01/10 11:08:59;;;;;;;;;;;;;;;8.11;43.70;102109.41;6035815;23;96969;-78
2021/01/10 11:11:37;;;;;;;;;;;;;;;8.28;43.50;102104.91;6035618;23;97020;-78
2021/01/10 11:14:04;;;;;;;;;;;;;;;8.24;43.41;102095.28;6030932;23;100685;-79
2021/01/10 11:16:31;;;;;;;;;;;;;;;7.80;44.07;102094.59;6034890;23;96782;-77
2021/01/10 11:18:58;;;;;;;;;;;;;;;7.93;44.45;102091.03;6033481;23;96960;-77
2021/01/10 11:21:30;;;;;;;;;;;;;;;7.61;45.34;102086.72;6035511;23;99683;-78
2021/01/10 11:23:56;;;;;;;;;;;;;;;7.99;44.61;102088.38;6036076;23;97707;-77
2021/01/10 11:26:21;;;;;;;;;;;;;;;8.14;43.98;102080.41;6031303;23;96884;-79
2021/01/10 11:28:49;;;;;;;;;;;;;;;7.91;44.76;102082.25;6031394;23;96683;-78
2021/01/10 11:31:15;;;;;;;;;;;;;;;8.02;44.59;102086.59;6032759;23;98892;-78
2021/01/10 11:33:42;;;;;;;;;;;;;;;8.11;44.29;102088.34;6030919;23;105126;-79
2021/01/10 11:36:09;;;;;;;;;;;;;;;7.95;44.78;102081.34;6030342;23;96744;-79
2021/01/10 11:38:35;;;;;;;;;;;;;;;8.17;44.14;102083.03;6030906;23;96762;-77
2021/01/10 11:41:04;;;;;;;;;;;;;;;8.00;44.13;102074.34;6034005;23;98835;-79
2021/01/10 11:43:30;;;;;;;;;;;;;;;7.89;44.74;102068.22;6032528;23;97765;-77
2021/01/10 11:46:00;;;;;;;;;;;;;;;7.94;44.92;102072.59;6034178;23;96785;-79
2021/01/10 11:48:26;;;;;;;;;;;;;;;7.81;44.83;102068.25;6033440;23;96821;-77
2021/01/10 11:50:52;;;;;;;;;;;;;;;7.73;45.09;102064.78;6031091;23;98554;-78
2021/01/10 11:53:18;;;;;;;;;;;;;;;7.93;45.02;102062.09;6030537;23;99133;-78
2021/01/10 11:55:44;;;;;;;;;;;;;;;7.92;45.16;102066.47;6030900;23;96698;-78
2021/01/10 11:58:10;;;;;;;;;;;;;;;8.08;44.24;102063.75;6030051;23;96955;-78
2021/01/10 12:00:36;;;;;;;;;;;;;;;7.96;44.61;102067.31;6030873;23;99059;-76
2021/01/10 12:03:05;;;;;;;;;;;;;;;7.86;44.93;102052.47;6029413;23;98968;-77
2021/01/10 12:05:31;;;;;;;;;;;;;;;7.97;44.99;102054.16;6030095;23;96706;-78
2021/01/10 12:08:11;;;;;;;;;;;;;;;7.93;44.79;102052.44;6030698;23;96825;-78
2021/01/10 12:10:38;;;;;;;;;;;;;;;8.10;44.41;102052.34;6029835;23;97755;-76
2021/01/10 12:13:04;;;;;;;;;;;;;;;7.70;45.34;102051.63;6030375;23;98242;-78
2021/01/10 12:15:32;;;;;;;;;;;;;;;7.81;44.92;102048.97;6030226;23;97142;-79
2021/01/10 12:17:58;;;;;;;;;;;;;;;7.80;44.92;102052.50;6028742;23;96945;-77
2021/01/10 12:20:25;;;;;;;;;;;;;;;7.84;44.71;102046.31;6028955;23;100962;-78
2021/01/10 12:22:53;;;;;;;;;;;;;;;8.19;44.23;102048.81;6029419;23;100472;-78
2021/01/10 12:25:19;;;;;;;;;;;;;;;8.20;44.28;102054.06;6029844;23;96779;-78
2021/01/10 12:27:45;;;;;;;;;;;;;;;8.19;43.89;102038.28;6031121;23;96707;-77
2021/01/10 12:30:11;;;;;;;;;;;;;;;8.09;44.65;102045.34;6035103;23;98135;-78
2021/01/10 12:32:38;;;;;;;;;;;;;;;8.22;44.41;102046.16;6031103;23;98864;-77
2021/01/10 12:35:06;;;;;;;;;;;;;;;8.36;43.76;102039.97;6032453;23;97006;-76
2021/01/10 12:37:33;;;;;;;;;;;;;;;8.27;43.76;102039.13;6035390;23;97115;-77
2021/01/10 12:39:59;;;;;;;;;;;;;;;8.16;43.75;102048.81;6034993;23;99093;-76
2021/01/10 12:42:25;;;;;;;;;;;;;;;8.20;43.66;102035.66;6031286;23;98990;-74
2021/01/10 12:44:51;;;;;;;;;;;;;;;8.13;44.36;102035.69;6032920;23;97394;-75
2021/01/10 12:47:17;;;;;;;;;;;;;;;8.13;44.19;102030.41;6033148;23;96866;-76
2021/01/10 12:49:44;;;;;;;;;;;;;;;7.95;44.46;102021.69;6034178;23;97803;-74